KAXV/AXV METAR and TAF weather

Enter ICAO airport designator
Station Type Date Time Source
KAXV METAR 2022/07/03 14:55 UTC NOAA

KAXV 031455Z AUTO 00000KT 10SM CLR 26/10 A3017 RMK AO2


Station Type Date Time Source
KAXV Decoded METAR 2022/07/03 14:55 UTC NOAA

Station name not available
Jul 03, 2022 - 10:55 AM EDT / 2022.07.03 1455 UTC
Wind: Calm:0
Visibility: 10 mile(s):0
Sky conditions: clear
Temperature: 78 F (26 C)
Dew Point: 50 F (10 C)
Relative Humidity: 36%
Pressure (altimeter): 30.17 in. Hg (1021 hPa)
ob: KAXV 031455Z AUTO 00000KT 10SM CLR 26/10 A3017 RMK AO2
cycle: 15

Station Type Date Time Source
KAXV TAF UTC NOAA

Error!

Example: see airport list